createdAt,value
2018-04-02T00:01:18.862Z,5.60
2018-04-02T00:07:23.417Z,5.53
2018-04-02T00:13:29.632Z,5.53
2018-04-02T00:19:34.167Z,5.22
2018-04-02T00:25:40.261Z,4.91
2018-04-02T00:31:44.993Z,4.49
2018-04-02T00:37:50.270Z,4.29
2018-04-02T00:43:55.034Z,3.98
2018-04-02T00:50:01.010Z,3.75
2018-04-02T00:56:05.731Z,3.47
2018-04-02T01:02:10.315Z,3.14
2018-04-02T01:08:14.867Z,2.92
2018-04-02T01:14:19.503Z,2.83
2018-04-02T01:20:25.733Z,2.76
2018-04-02T01:26:30.976Z,2.79
2018-04-02T01:32:36.408Z,2.80
2018-04-02T01:38:41.025Z,3.05
2018-04-02T01:44:45.517Z,3.22
2018-04-02T01:50:50.083Z,3.45
2018-04-02T01:56:54.737Z,3.49
2018-04-02T02:02:59.754Z,3.73
2018-04-02T02:09:04.430Z,3.86
2018-04-02T02:15:09.033Z,4.10
2018-04-02T02:21:13.545Z,4.07
2018-04-02T02:27:18.814Z,4.19
2018-04-02T02:33:23.373Z,4.35
2018-04-02T02:39:29.258Z,4.40
2018-04-02T02:45:33.797Z,4.46
2018-04-02T02:51:38.354Z,4.48
2018-04-02T02:57:42.947Z,4.48
2018-04-02T03:03:47.601Z,4.47
2018-04-02T03:09:52.218Z,4.49
2018-04-02T03:15:57.082Z,4.57
2018-04-02T03:22:01.810Z,4.57
2018-04-02T03:28:06.462Z,4.62
2018-04-02T03:34:10.994Z,4.64
2018-04-02T03:40:15.723Z,4.70
2018-04-02T03:46:20.261Z,4.67
2018-04-02T03:52:24.831Z,4.66
2018-04-02T03:58:30.532Z,4.43
2018-04-02T04:04:35.802Z,4.49
2018-04-02T04:10:40.377Z,4.54
2018-04-02T04:16:44.938Z,4.55
2018-04-02T04:22:49.576Z,4.53
2018-04-02T04:28:54.070Z,4.56
2018-04-02T04:34:59.448Z,4.56
2018-04-02T04:41:04.058Z,4.69
2018-04-02T04:47:08.535Z,4.74
2018-04-02T04:53:13.047Z,4.46
2018-04-02T04:59:18.310Z,4.19
2018-04-02T05:05:22.800Z,3.84
2018-04-02T05:11:27.705Z,3.63
2018-04-02T05:17:33.242Z,3.66
2018-04-02T05:23:37.933Z,3.42
2018-04-02T05:29:42.433Z,3.25
2018-04-02T05:35:47.040Z,3.21
2018-04-02T05:41:51.621Z,3.31
2018-04-02T05:47:57.376Z,3.24
2018-04-02T05:54:01.914Z,3.35
2018-04-02T06:00:06.380Z,3.37
2018-04-02T06:06:10.848Z,3.53
2018-04-02T06:12:15.437Z,3.74
2018-04-02T06:18:19.991Z,3.86
2018-04-02T06:24:24.706Z,4.03
2018-04-02T06:30:30.521Z,4.29
2018-04-02T06:36:35.161Z,4.63
2018-04-02T06:42:40.520Z,4.97
2018-04-02T06:48:45.602Z,5.86
2018-04-02T06:54:51.000Z,8.72
2018-04-02T07:00:56.488Z,10.04
2018-04-02T07:07:01.271Z,8.99
2018-04-02T07:13:05.748Z,8.99
2018-04-02T07:19:10.385Z,11.47
2018-04-02T07:25:14.976Z,10.77
2018-04-02T07:31:19.721Z,10.15
2018-04-02T07:37:25.123Z,9.60
2018-04-02T07:43:30.643Z,9.82
2018-04-02T07:49:35.121Z,9.31
2018-04-02T07:55:39.708Z,8.84
2018-04-02T08:01:44.338Z,8.65
2018-04-02T08:07:49.651Z,8.37
2018-04-02T08:13:54.144Z,8.61
2018-04-02T08:19:59.088Z,9.07
2018-04-02T08:26:03.637Z,9.10
2018-04-02T08:32:08.284Z,9.29
2018-04-02T08:38:12.789Z,9.45
2018-04-02T08:44:17.314Z,9.91
2018-04-02T08:50:21.817Z,9.53
2018-04-02T08:56:27.114Z,9.36
2018-04-02T09:02:32.623Z,9.84
2018-04-02T09:08:37.192Z,9.73
2018-04-02T09:14:41.755Z,10.29
2018-04-02T09:20:47.180Z,9.96
2018-04-02T09:26:53.434Z,9.83
2018-04-02T09:32:58.468Z,9.90
2018-04-02T09:39:03.190Z,11.44
2018-04-02T09:45:08.511Z,13.86
2018-04-02T09:51:13.040Z,17.04
2018-04-02T09:57:18.354Z,19.96
2018-04-02T10:03:22.824Z,20.19
2018-04-02T10:09:27.601Z,21.48
2018-04-02T10:15:32.188Z,19.29
2018-04-02T10:21:36.669Z,18.22
2018-04-02T10:27:41.159Z,18.78
2018-04-02T10:33:45.725Z,20.10
2018-04-02T10:39:50.348Z,18.84
2018-04-02T10:45:55.094Z,17.98
2018-04-02T10:51:59.788Z,17.25
2018-04-02T10:58:05.088Z,18.51
2018-04-02T11:04:09.732Z,17.68
2018-04-02T11:10:14.223Z,16.28
2018-04-02T11:16:19.107Z,14.77
2018-04-02T11:22:23.627Z,13.74
2018-04-02T11:28:28.133Z,13.04
2018-04-02T11:34:32.627Z,13.13
2018-04-02T11:40:37.925Z,13.63
2018-04-02T11:46:42.458Z,13.81
2018-04-02T11:52:47.034Z,13.21
2018-04-02T11:58:51.824Z,12.72
2018-04-02T12:04:56.646Z,13.13
2018-04-02T12:11:01.444Z,13.23
2018-04-02T12:17:05.987Z,13.55
2018-04-02T12:23:10.512Z,13.60
2018-04-02T12:29:15.000Z,14.07
2018-04-02T12:35:19.537Z,14.11
2018-04-02T12:41:25.455Z,13.61
2018-04-02T12:47:30.405Z,13.49
2018-04-02T12:53:35.046Z,13.59
2018-04-02T12:59:39.538Z,14.65
2018-04-02T13:05:44.149Z,15.39
2018-04-02T13:11:48.668Z,15.59
2018-04-02T13:17:53.153Z,15.71
2018-04-02T13:23:57.665Z,15.90
2018-04-02T13:30:02.159Z,15.66
2018-04-02T13:36:06.674Z,15.85
2018-04-02T13:42:11.952Z,16.92
2018-04-02T13:48:16.464Z,16.13
2018-04-02T13:54:20.964Z,15.92
2018-04-02T14:00:25.491Z,16.94
2018-04-02T14:06:30.435Z,16.22
2018-04-02T14:12:34.939Z,16.25
2018-04-02T14:18:39.411Z,15.86
2018-04-02T14:24:44.051Z,16.08
2018-04-02T14:30:49.331Z,16.26
2018-04-02T14:36:53.892Z,16.06
2018-04-02T14:55:59.242Z,16.38
2018-04-02T15:02:03.811Z,18.36
2018-04-02T15:08:08.591Z,18.50
2018-04-02T15:14:13.108Z,20.13
2018-04-02T15:20:17.591Z,20.41
2018-04-02T15:26:22.218Z,18.45
2018-04-02T15:32:27.512Z,17.08
2018-04-02T15:38:32.065Z,16.41
2018-04-02T15:44:36.536Z,15.81
2018-04-02T15:50:41.034Z,15.83
2018-04-02T15:56:46.410Z,18.99
2018-04-02T16:02:50.941Z,18.02
2018-04-02T16:08:55.529Z,17.27
2018-04-02T16:15:00.126Z,16.65
2018-04-02T16:21:06.251Z,16.14
2018-04-02T16:27:10.765Z,15.56
2018-04-02T16:33:15.284Z,15.44
2018-04-02T16:39:20.680Z,15.04
2018-04-02T16:45:25.770Z,14.94
2018-04-02T16:51:30.363Z,14.85
2018-04-02T16:57:34.953Z,14.63
2018-04-02T17:03:39.486Z,14.05
2018-04-02T17:09:44.015Z,13.86
2018-04-02T17:15:48.498Z,13.49
2018-04-02T17:21:52.987Z,13.17
2018-04-02T17:27:57.857Z,12.89
2018-04-02T17:34:02.361Z,12.54
2018-04-02T17:40:06.859Z,12.24
2018-04-02T17:46:11.337Z,11.97
2018-04-02T17:52:15.808Z,11.80
2018-04-02T17:58:20.905Z,11.51
2018-04-02T18:04:25.634Z,11.62
2018-04-02T18:10:30.239Z,11.43
2018-04-02T18:16:34.740Z,11.23
2018-04-02T18:22:39.232Z,11.12
2018-04-02T18:28:43.745Z,10.93
2018-04-02T18:34:49.000Z,10.87
2018-04-02T18:40:53.532Z,10.69
2018-04-02T18:46:58.399Z,10.75
2018-04-02T18:53:02.920Z,10.80
2018-04-02T18:59:07.401Z,10.88
2018-04-02T19:05:11.919Z,10.88
2018-04-02T19:11:16.487Z,10.90
2018-04-02T19:17:20.975Z,10.89
2018-04-02T19:23:27.898Z,10.83
2018-04-02T19:29:32.469Z,10.99
2018-04-02T19:35:37.038Z,11.04
2018-04-02T19:41:42.263Z,10.85
2018-04-02T19:47:46.960Z,10.84
2018-04-02T19:53:52.287Z,10.72
2018-04-02T19:59:57.201Z,10.60
2018-04-02T20:06:02.523Z,10.62
2018-04-02T20:12:07.200Z,10.86
2018-04-02T20:18:11.912Z,11.07
2018-04-02T20:24:16.415Z,10.93
2018-04-02T20:30:20.975Z,10.91
2018-04-02T20:36:25.546Z,10.89
2018-04-02T20:42:30.461Z,10.79
2018-04-02T20:48:35.036Z,10.97
2018-04-02T20:54:39.550Z,10.62
2018-04-02T21:00:44.032Z,10.67
2018-04-02T21:06:48.663Z,10.68
2018-04-02T21:12:53.424Z,10.62
2018-04-02T21:18:58.767Z,10.59
2018-04-02T21:25:03.273Z,10.43
2018-04-02T21:31:07.755Z,10.43
2018-04-02T21:37:12.539Z,10.32
2018-04-02T21:43:17.116Z,10.29
2018-04-02T21:49:21.738Z,10.28
2018-04-02T21:55:26.513Z,10.17
2018-04-02T22:01:31.357Z,10.10
2018-04-02T22:07:36.168Z,10.17
2018-04-02T22:13:40.731Z,10.08
2018-04-02T22:19:45.261Z,10.13
2018-04-02T22:25:49.836Z,10.16
2018-04-02T22:31:54.348Z,10.08
2018-04-02T22:37:59.346Z,9.96
2018-04-02T22:44:03.866Z,10.07
2018-04-02T22:50:08.623Z,9.66
2018-04-02T22:56:13.108Z,9.73
2018-04-02T23:02:18.400Z,9.63
2018-04-02T23:08:22.895Z,9.69
2018-04-02T23:14:28.586Z,9.43
2018-04-02T23:20:33.255Z,9.41
2018-04-02T23:26:37.819Z,9.44
2018-04-02T23:32:42.281Z,9.47
2018-04-02T23:38:46.763Z,9.39
2018-04-02T23:44:51.276Z,9.42
2018-04-02T23:50:55.974Z,9.54
2018-04-02T23:57:00.725Z,9.59
